Time;durP1;ratioP1;P1;durP2;ratioP2;P2;SDS_P1;SDS_P2;PMS_P1;PMS_P2;Temp;Humidity;BMP_temperature;BMP_pressure;BME280_temperature;BME280_humidity;BME280_pressure;Samples;Min_cycle;Max_cycle;Signal;HPM_P1;HPM_P2
2021/09/06 00:01:38;;;;;;;23.87;17.93;;;19.70;80.60;;;;;;5015479;28;20172;-84
2021/09/06 00:04:04;;;;;;;26.77;19.73;;;19.70;81.50;;;;;;5014977;28;20192;-82
2021/09/06 00:06:31;;;;;;;24.53;19.90;;;19.60;81.40;;;;;;5015456;28;20714;-82
2021/09/06 00:08:56;;;;;;;24.07;18.83;;;19.70;81.20;;;;;;5014147;28;20181;-82
2021/09/06 00:11:22;;;;;;;23.47;19.30;;;19.70;80.90;;;;;;5013067;28;20179;-83
2021/09/06 00:13:50;;;;;;;24.30;19.23;;;19.70;80.40;;;;;;5013717;28;20191;-81
2021/09/06 00:16:17;;;;;;;24.40;18.70;;;19.80;79.00;;;;;;5013568;28;20560;-82
2021/09/06 00:18:42;;;;;;;25.40;19.87;;;19.60;81.10;;;;;;5015099;28;20266;-84
2021/09/06 00:21:08;;;;;;;23.10;19.00;;;19.60;82.30;;;;;;5014942;28;20173;-84
2021/09/06 00:23:35;;;;;;;22.87;19.57;;;19.50;83.80;;;;;;5014128;28;20173;-83
2021/09/06 00:26:01;;;;;;;23.23;19.30;;;19.40;85.30;;;;;;5015388;28;20585;-84
2021/09/06 00:28:27;;;;;;;22.03;19.40;;;19.40;85.60;;;;;;5014557;28;20672;-84
2021/09/06 00:30:52;;;;;;;23.70;19.33;;;19.30;87.50;;;;;;5014670;28;20187;-83
2021/09/06 00:33:19;;;;;;;23.77;19.93;;;19.30;89.50;;;;;;5015427;28;20172;-82
2021/09/06 00:35:46;;;;;;;23.30;19.00;;;19.20;89.40;;;;;;5012973;28;20174;-85
2021/09/06 00:38:14;;;;;;;25.97;19.93;;;19.30;87.80;;;;;;5014017;28;20203;-84
2021/09/06 00:40:41;;;;;;;24.63;19.70;;;19.30;87.00;;;;;;5013843;28;20163;-84
2021/09/06 00:43:07;;;;;;;26.10;20.37;;;19.30;87.40;;;;;;5015234;28;20646;-82
2021/09/06 00:45:33;;;;;;;27.63;19.07;;;19.20;87.60;;;;;;5014591;28;20270;-83
2021/09/06 00:47:58;;;;;;;27.13;18.80;;;19.10;88.80;;;;;;5014418;28;20269;-84
2021/09/06 00:50:24;;;;;;;25.20;19.67;;;18.90;90.70;;;;;;5012159;28;20641;-85
2021/09/06 00:52:50;;;;;;;25.23;19.93;;;18.70;91.80;;;;;;5013896;28;20189;-83
2021/09/06 00:55:17;;;;;;;22.97;20.13;;;18.80;92.20;;;;;;5013605;28;20182;-83
2021/09/06 00:57:44;;;;;;;24.03;20.43;;;18.70;92.30;;;;;;5012616;28;20590;-84
2021/09/06 01:00:11;;;;;;;24.83;20.50;;;18.80;92.30;;;;;;5013542;28;20178;-85
2021/09/06 01:02:37;;;;;;;25.30;20.80;;;18.70;92.20;;;;;;5013583;28;20177;-82
2021/09/06 01:05:04;;;;;;;26.23;20.80;;;18.70;92.30;;;;;;5013403;28;20207;-82
2021/09/06 01:07:29;;;;;;;26.90;21.50;;;18.70;92.40;;;;;;5013274;28;20651;-83
2021/09/06 01:09:55;;;;;;;22.67;20.03;;;18.80;91.70;;;;;;5013326;28;20191;-82
2021/09/06 01:12:21;;;;;;;25.37;20.50;;;19.00;90.90;;;;;;5012981;28;20233;-82
2021/09/06 01:14:46;;;;;;;23.93;20.60;;;19.00;90.00;;;;;;5011746;28;20187;-81
2021/09/06 01:17:12;;;;;;;28.70;21.23;;;19.10;90.30;;;;;;5016601;28;20716;-83
2021/09/06 01:19:38;;;;;;;29.17;20.13;;;19.00;90.10;;;;;;5015245;28;20594;-82
2021/09/06 01:22:07;;;;;;;25.47;20.90;;;18.90;90.30;;;;;;5016574;28;20309;-81
2021/09/06 01:24:33;;;;;;;27.30;20.63;;;19.00;90.60;;;;;;5015425;28;20182;-82
2021/09/06 01:26:59;;;;;;;25.93;21.00;;;18.70;91.80;;;;;;5016442;28;20175;-82
2021/09/06 01:29:25;;;;;;;25.97;21.53;;;18.50;92.60;;;;;;5016447;28;20192;-82
2021/09/06 01:31:51;;;;;;;29.13;21.17;;;18.40;93.50;;;;;;5016298;28;20184;-82
2021/09/06 01:34:16;;;;;;;26.60;21.50;;;18.50;93.10;;;;;;5016151;28;20174;-82
2021/09/06 01:36:42;;;;;;;25.30;21.00;;;18.60;92.80;;;;;;5014988;28;20170;-82
2021/09/06 01:39:08;;;;;;;25.83;21.20;;;18.50;92.90;;;;;;5016106;28;20275;-82
2021/09/06 01:41:34;;;;;;;27.40;21.93;;;18.50;93.40;;;;;;5014981;28;20185;-82
2021/09/06 01:44:00;;;;;;;28.30;21.10;;;18.50;93.10;;;;;;5016427;28;20206;-82
2021/09/06 01:46:33;;;;;;;27.33;21.30;;;18.60;92.20;;;;;;5015588;28;20209;-82
2021/09/06 01:48:58;;;;;;;27.10;21.43;;;18.60;92.10;;;;;;5016382;28;20182;-83
2021/09/06 01:51:25;;;;;;;26.30;21.90;;;18.50;92.50;;;;;;5016897;28;20271;-82
2021/09/06 01:53:52;;;;;;;27.40;22.17;;;18.50;92.90;;;;;;5018755;28;20176;-82
2021/09/06 01:56:18;;;;;;;27.27;22.13;;;18.40;93.10;;;;;;5019022;28;20312;-82
2021/09/06 01:58:43;;;;;;;29.50;22.77;;;18.40;93.30;;;;;;5017279;28;20257;-82
2021/09/06 02:01:09;;;;;;;27.20;20.97;;;18.50;93.20;;;;;;5015432;28;20703;-82
2021/09/06 02:03:35;;;;;;;28.53;21.57;;;18.40;93.30;;;;;;5016317;28;20541;-82
2021/09/06 02:06:00;;;;;;;29.67;21.97;;;18.40;93.50;;;;;;5015930;28;20653;-83
2021/09/06 02:08:26;;;;;;;29.73;23.37;;;18.60;93.60;;;;;;5027428;28;20177;-80
2021/09/06 02:10:54;;;;;;;27.27;22.00;;;18.60;93.80;;;;;;5039105;28;20194;-81
2021/09/06 02:13:20;;;;;;;30.53;23.13;;;18.50;93.30;;;;;;5038655;28;20212;-82
2021/09/06 02:15:45;;;;;;;29.47;22.40;;;18.40;93.50;;;;;;5034826;28;20178;-81
2021/09/06 02:18:11;;;;;;;25.90;22.03;;;18.50;93.30;;;;;;5038966;28;20206;-82
2021/09/06 02:20:37;;;;;;;25.20;21.83;;;18.50;93.40;;;;;;5039747;28;20226;-81
2021/09/06 02:23:04;;;;;;;27.97;23.03;;;18.50;93.60;;;;;;5029467;28;20587;-84
2021/09/06 02:25:29;;;;;;;31.00;22.37;;;18.40;93.90;;;;;;5021295;28;20681;-82
2021/09/06 02:27:55;;;;;;;32.50;23.20;;;18.30;93.90;;;;;;5018986;28;20198;-84
2021/09/06 02:30:26;;;;;;;27.87;23.03;;;18.20;95.00;;;;;;5019254;28;20639;-83
2021/09/06 02:32:52;;;;;;;27.93;22.63;;;18.10;95.30;;;;;;5014238;28;20233;-83
2021/09/06 02:35:18;;;;;;;29.57;22.17;;;18.10;95.50;;;;;;5015591;28;20618;-83
2021/09/06 02:37:57;;;;;;;30.13;22.67;;;18.10;95.40;;;;;;5015636;28;20207;-83
2021/09/06 02:40:24;;;;;;;29.50;23.17;;;17.90;96.40;;;;;;5014512;28;20190;-83
2021/09/06 02:42:49;;;;;;;30.43;24.00;;;18.00;96.50;;;;;;5013966;28;20596;-84
2021/09/06 02:45:15;;;;;;;27.53;22.37;;;18.00;96.20;;;;;;5015017;28;20186;-83
2021/09/06 02:47:46;;;;;;;27.47;21.93;;;18.10;96.00;;;;;;5014882;28;20598;-84
2021/09/06 02:50:12;;;;;;;38.17;24.43;;;18.10;96.20;;;;;;5013885;28;20643;-84
2021/09/06 02:52:37;;;;;;;30.47;22.83;;;17.80;96.80;;;;;;5015007;28;20178;-83
2021/09/06 02:55:04;;;;;;;29.93;23.50;;;17.90;97.10;;;;;;5015211;28;20265;-84
2021/09/06 02:57:29;;;;;;;29.60;23.43;;;17.90;97.00;;;;;;5014579;28;20182;-83
2021/09/06 02:59:55;;;;;;;31.37;24.47;;;17.90;96.80;;;;;;5014952;28;20605;-84
2021/09/06 03:02:21;;;;;;;30.50;23.37;;;17.90;96.80;;;;;;5014913;28;20179;-83
2021/09/06 03:04:47;;;;;;;29.03;24.00;;;17.90;96.20;;;;;;5014734;28;20171;-84
2021/09/06 03:07:13;;;;;;;33.40;23.63;;;17.90;96.80;;;;;;5015815;28;20177;-83
2021/09/06 03:09:38;;;;;;;31.20;23.80;;;17.90;96.90;;;;;;5015170;28;20178;-85
2021/09/06 03:12:05;;;;;;;31.60;25.47;;;17.90;96.70;;;;;;5015227;28;20168;-83
2021/09/06 03:14:30;;;;;;;31.60;24.97;;;18.00;96.60;;;;;;5014411;28;20693;-82
2021/09/06 03:16:56;;;;;;;34.07;25.07;;;18.10;96.00;;;;;;5014315;28;20166;-83
2021/09/06 03:19:22;;;;;;;32.03;24.03;;;18.30;95.10;;;;;;5014520;28;20211;-83
2021/09/06 03:21:47;;;;;;;31.77;23.83;;;18.20;94.60;;;;;;5014493;28;20254;-83
2021/09/06 03:24:13;;;;;;;31.27;24.17;;;18.00;95.40;;;;;;5014135;28;20173;-84
2021/09/06 03:26:39;;;;;;;33.03;24.37;;;17.90;96.30;;;;;;5014643;28;20646;-83
2021/09/06 03:29:05;;;;;;;31.77;23.67;;;17.80;97.10;;;;;;5013877;28;20739;-83
2021/09/06 03:31:32;;;;;;;33.17;25.47;;;17.80;97.30;;;;;;5014610;28;20253;-82
2021/09/06 03:33:59;;;;;;;30.47;23.63;;;17.70;97.10;;;;;;5013015;28;20251;-85
2021/09/06 03:36:27;;;;;;;31.43;24.43;;;17.70;97.30;;;;;;5018703;28;20166;-84
2021/09/06 03:38:55;;;;;;;36.17;25.63;;;17.70;97.70;;;;;;5013886;28;20223;-84
2021/09/06 03:41:21;;;;;;;33.03;24.60;;;17.70;97.60;;;;;;5013777;28;20513;-83
2021/09/06 03:43:46;;;;;;;31.83;25.27;;;17.70;97.50;;;;;;5014036;28;20188;-83
2021/09/06 03:46:12;;;;;;;34.33;25.90;;;17.70;97.10;;;;;;5013715;28;20699;-83
2021/09/06 03:48:38;;;;;;;32.77;24.97;;;17.60;97.50;;;;;;5013881;28;20533;-84
2021/09/06 03:51:04;;;;;;;36.10;26.13;;;17.70;97.70;;;;;;5012731;28;20262;-83
2021/09/06 03:53:29;;;;;;;34.77;27.27;;;17.60;98.10;;;;;;5014046;28;20635;-83
2021/09/06 03:55:55;;;;;;;31.83;25.57;;;17.60;97.70;;;;;;5013668;28;20382;-84
2021/09/06 03:58:21;;;;;;;37.47;27.10;;;17.70;97.90;;;;;;5014143;28;20201;-84
2021/09/06 04:00:47;;;;;;;33.63;26.90;;;17.60;97.90;;;;;;5013553;28;20261;-84
2021/09/06 04:03:13;;;;;;;34.60;26.57;;;17.50;97.90;;;;;;5012611;28;20172;-82
2021/09/06 04:05:38;;;;;;;34.40;27.20;;;17.70;97.70;;;;;;5012796;28;20176;-84
2021/09/06 04:08:05;;;;;;;34.37;26.93;;;17.80;97.10;;;;;;5013690;28;20176;-83
2021/09/06 04:10:31;;;;;;;33.87;27.40;;;17.90;96.60;;;;;;5014118;28;20171;-83
2021/09/06 04:12:57;;;;;;;35.33;27.17;;;17.80;96.40;;;;;;5015218;28;20255;-85
2021/09/06 04:15:23;;;;;;;35.80;26.33;;;17.80;96.40;;;;;;5013697;28;20174;-82
2021/09/06 04:17:49;;;;;;;37.50;26.80;;;17.80;96.70;;;;;;5012924;28;20321;-84
2021/09/06 04:20:14;;;;;;;35.13;26.63;;;17.70;96.90;;;;;;5013343;28;20205;-85
2021/09/06 04:22:40;;;;;;;37.80;27.50;;;17.60;97.50;;;;;;5013702;28;20536;-84
2021/09/06 04:25:07;;;;;;;34.83;27.23;;;17.70;98.30;;;;;;5012393;28;20658;-87
2021/09/06 04:27:33;;;;;;;36.23;27.47;;;17.60;98.30;;;;;;5013931;28;20223;-85
2021/09/06 04:29:59;;;;;;;37.70;26.07;;;17.70;98.10;;;;;;5012994;28;20204;-84
2021/09/06 04:32:25;;;;;;;37.07;27.20;;;17.50;98.10;;;;;;5013545;28;20606;-83
2021/09/06 04:34:50;;;;;;;34.13;27.53;;;17.40;98.60;;;;;;5013317;28;20231;-82
2021/09/06 04:37:16;;;;;;;38.97;27.43;;;17.50;98.60;;;;;;5013471;28;20184;-83
2021/09/06 04:39:42;;;;;;;34.17;26.33;;;17.40;98.80;;;;;;5012039;28;20233;-85
2021/09/06 04:42:07;;;;;;;38.07;26.53;;;17.50;98.80;;;;;;5013352;28;20196;-83
2021/09/06 04:44:33;;;;;;;37.07;25.37;;;17.40;98.70;;;;;;5013115;28;20627;-85
2021/09/06 04:46:59;;;;;;;34.70;26.03;;;17.40;98.50;;;;;;5013125;28;20170;-84
2021/09/06 04:49:25;;;;;;;35.80;25.70;;;17.40;98.60;;;;;;5013286;28;20183;-83
2021/09/06 04:51:50;;;;;;;44.20;27.00;;;17.30;99.10;;;;;;5016054;28;20210;-83
2021/09/06 04:54:17;;;;;;;38.33;26.03;;;17.20;99.60;;;;;;5016948;28;20275;-83
2021/09/06 04:56:43;;;;;;;41.23;26.33;;;17.30;99.80;;;;;;5017632;28;20185;-84
2021/09/06 04:59:09;;;;;;;44.23;26.93;;;17.30;99.00;;;;;;5017605;28;20571;-85
2021/09/06 05:01:36;;;;;;;37.17;25.43;;;17.50;98.90;;;;;;5017293;28;20285;-85
2021/09/06 05:04:02;;;;;;;39.47;26.23;;;17.50;98.60;;;;;;5017145;28;20181;-84
2021/09/06 05:06:28;;;;;;;40.60;26.33;;;17.40;98.50;;;;;;5017225;28;20209;-83
2021/09/06 05:08:53;;;;;;;41.77;26.80;;;17.20;99.10;;;;;;5017372;28;20260;-84
2021/09/06 05:11:19;;;;;;;40.97;27.50;;;17.20;99.70;;;;;;5017526;28;20171;-83
2021/09/06 05:13:44;;;;;;;45.33;27.47;;;17.20;99.80;;;;;;5017360;28;20209;-83
2021/09/06 05:16:10;;;;;;;53.40;27.23;;;17.30;99.80;;;;;;5017797;28;20705;-84
2021/09/06 05:18:36;;;;;;;40.57;26.50;;;17.20;99.70;;;;;;5017180;28;20304;-84
2021/09/06 05:21:02;;;;;;;39.80;27.10;;;17.20;99.90;;;;;;5019795;28;20178;-85
2021/09/06 05:23:31;;;;;;;42.30;26.87;;;17.20;99.90;;;;;;5021562;28;20178;-85
2021/09/06 05:25:56;;;;;;;51.63;28.43;;;17.10;99.80;;;;;;5018413;28;20178;-86
2021/09/06 05:28:22;;;;;;;42.00;27.23;;;17.10;99.90;;;;;;5015796;28;20207;-85
2021/09/06 05:30:47;;;;;;;50.10;28.73;;;17.00;99.90;;;;;;5017403;28;20312;-84
2021/09/06 05:33:13;;;;;;;53.40;29.50;;;17.10;99.90;;;;;;5016412;28;20635;-84
2021/09/06 05:35:39;;;;;;;47.70;26.03;;;17.10;99.90;;;;;;5017447;28;20654;-85
2021/09/06 05:38:04;;;;;;;53.63;28.97;;;17.10;99.90;;;;;;5016632;28;20209;-86
2021/09/06 05:40:30;;;;;;;45.00;28.97;;;17.30;99.90;;;;;;5020344;28;20323;-83
2021/09/06 05:42:56;;;;;;;47.90;28.50;;;17.50;99.20;;;;;;5016626;28;20713;-84
2021/09/06 05:45:22;;;;;;;51.37;28.70;;;17.60;98.20;;;;;;5017139;28;20548;-84
2021/09/06 05:47:48;;;;;;;52.90;27.90;;;17.50;97.80;;;;;;4999753;28;20171;-86
2021/09/06 05:50:17;;;;;;;54.53;29.40;;;17.40;97.90;;;;;;4998324;28;20179;-87
2021/09/06 05:52:46;;;;;;;55.27;28.87;;;17.40;98.50;;;;;;5002393;28;20173;-85
2021/09/06 05:55:13;;;;;;;56.17;29.33;;;17.50;98.10;;;;;;5004378;28;20182;-85
2021/09/06 05:57:43;;;;;;;67.77;29.03;;;17.60;97.90;;;;;;5004167;28;20203;-87
2021/09/06 06:00:09;;;;;;;60.70;30.23;;;17.70;97.00;;;;;;5001067;28;20275;-84
2021/09/06 06:02:38;;;;;;;60.77;29.80;;;17.50;97.40;;;;;;4998986;28;20163;-83
2021/09/06 06:05:04;;;;;;;55.83;29.10;;;17.60;97.30;;;;;;5007197;28;20321;-86
2021/09/06 06:07:30;;;;;;;64.23;30.93;;;17.60;97.00;;;;;;5016256;28;20204;-85
2021/09/06 06:09:56;;;;;;;53.03;29.00;;;17.60;97.00;;;;;;5018324;28;20191;-87
2021/09/06 06:12:22;;;;;;;54.33;29.17;;;17.80;96.00;;;;;;5019597;28;20190;-85
2021/09/06 06:14:49;;;;;;;49.37;28.37;;;17.80;95.70;;;;;;5011643;28;20190;-84
2021/09/06 06:17:15;;;;;;;53.10;28.43;;;17.90;95.30;;;;;;5007841;28;20254;-85
2021/09/06 06:19:43;;;;;;;56.23;28.47;;;17.90;94.80;;;;;;5014732;28;20322;-86
2021/09/06 06:22:08;;;;;;;47.50;29.53;;;18.00;94.50;;;;;;4994802;28;20187;-84
2021/09/06 06:24:34;;;;;;;55.30;28.80;;;18.20;93.70;;;;;;4995690;28;20167;-87
2021/09/06 06:26:59;;;;;;;57.17;30.07;;;18.20;93.40;;;;;;4994727;28;20175;-85
2021/09/06 06:29:25;;;;;;;55.67;30.63;;;18.20;92.90;;;;;;4994930;28;20197;-86
2021/09/06 06:31:51;;;;;;;52.17;29.30;;;18.30;92.60;;;;;;4995386;28;20191;-85
2021/09/06 06:34:16;;;;;;;48.07;28.60;;;18.30;92.10;;;;;;4995499;28;20167;-85
2021/09/06 06:36:42;;;;;;;44.53;27.63;;;18.30;92.30;;;;;;4995709;28;20247;-86
2021/09/06 06:39:08;;;;;;;48.83;29.50;;;18.20;92.80;;;;;;4994363;28;20229;-87
2021/09/06 06:41:33;;;;;;;57.50;28.77;;;18.30;92.20;;;;;;4996063;28;20168;-85
2021/09/06 06:44:00;;;;;;;46.23;28.57;;;18.60;91.80;;;;;;4994489;28;20260;-86
2021/09/06 06:46:26;;;;;;;52.17;27.00;;;18.50;90.70;;;;;;4994542;28;20223;-86
2021/09/06 06:48:57;;;;;;;51.00;28.47;;;18.60;90.20;;;;;;4996199;28;20532;-87
2021/09/06 06:51:22;;;;;;;55.37;30.07;;;18.80;89.60;;;;;;4995275;28;20174;-85
2021/09/06 06:53:48;;;;;;;55.33;29.63;;;18.60;90.60;;;;;;4999111;28;20175;-85
2021/09/06 06:56:13;;;;;;;58.57;30.73;;;18.60;90.30;;;;;;4998198;28;20653;-85
2021/09/06 06:58:39;;;;;;;47.50;30.03;;;18.70;90.00;;;;;;4999834;28;20234;-88
2021/09/06 07:01:05;;;;;;;51.93;31.37;;;18.70;89.60;;;;;;4997263;28;20254;-85
2021/09/06 07:03:31;;;;;;;58.87;30.10;;;18.90;89.00;;;;;;4994360;28;20541;-86
2021/09/06 07:05:56;;;;;;;55.87;30.30;;;19.10;85.50;;;;;;4995290;28;20579;-85
2021/09/06 07:08:22;;;;;;;51.57;30.27;;;19.30;83.40;;;;;;4994129;28;20239;-86
2021/09/06 07:10:52;;;;;;;46.00;29.97;;;19.30;79.00;;;;;;4994129;28;20175;-85
2021/09/06 07:13:18;;;;;;;53.63;30.87;;;19.50;75.20;;;;;;4994946;28;20532;-85
2021/09/06 07:15:44;;;;;;;45.37;30.23;;;19.40;76.90;;;;;;4995430;28;20188;-85
2021/09/06 07:18:10;;;;;;;45.67;30.40;;;19.40;74.80;;;;;;4993953;28;20208;-86
2021/09/06 07:20:36;;;;;;;42.43;28.07;;;19.60;74.00;;;;;;4994156;28;20172;-86
2021/09/06 07:23:02;;;;;;;44.60;30.40;;;19.60;70.60;;;;;;4994107;28;20172;-85
2021/09/06 07:25:28;;;;;;;41.97;29.40;;;19.60;69.30;;;;;;4994603;28;20171;-84
2021/09/06 07:27:53;;;;;;;51.63;32.40;;;19.80;68.50;;;;;;4995131;28;20652;-83
2021/09/06 07:30:19;;;;;;;47.50;31.67;;;19.90;67.40;;;;;;4995511;28;20176;-85
2021/09/06 07:32:45;;;;;;;47.93;31.50;;;19.70;66.70;;;;;;4994420;28;20276;-84
2021/09/06 07:35:17;;;;;;;45.67;31.60;;;19.80;67.70;;;;;;4994258;28;20177;-85
2021/09/06 07:37:43;;;;;;;45.30;31.10;;;19.80;67.40;;;;;;4993594;28;20181;-84
2021/09/06 07:40:13;;;;;;;42.57;30.43;;;20.00;66.40;;;;;;4993699;28;20231;-85
2021/09/06 07:42:40;;;;;;;52.20;32.50;;;19.90;62.00;;;;;;4993774;28;20617;-85
2021/09/06 07:45:07;;;;;;;42.47;31.67;;;19.90;63.00;;;;;;4995252;28;20178;-85
2021/09/06 07:47:33;;;;;;;47.90;32.00;;;20.10;61.80;;;;;;4994901;28;20253;-85
2021/09/06 07:50:00;;;;;;;44.57;30.27;;;20.40;59.20;;;;;;4997715;28;20270;-85
2021/09/06 07:52:26;;;;;;;49.93;32.23;;;20.60;52.20;;;;;;4996579;28;20186;-84
2021/09/06 07:54:52;;;;;;;46.60;31.50;;;20.70;49.90;;;;;;4996387;28;20532;-83
2021/09/06 07:57:17;;;;;;;47.17;32.17;;;20.80;48.60;;;;;;4994057;28;20183;-84
2021/09/06 07:59:43;;;;;;;42.30;31.53;;;20.80;43.40;;;;;;4993367;28;20232;-84
2021/09/06 08:02:09;;;;;;;44.37;32.27;;;20.80;44.00;;;;;;4993530;28;20179;-84
2021/09/06 08:04:34;;;;;;;44.07;31.27;;;20.90;44.20;;;;;;4994433;28;20653;-84
2021/09/06 08:07:00;;;;;;;45.07;32.97;;;20.90;41.60;;;;;;4994454;28;20174;-84
2021/09/06 08:09:26;;;;;;;44.43;32.17;;;20.90;41.40;;;;;;4995398;28;20237;-86
2021/09/06 08:11:55;;;;;;;44.70;32.27;;;21.00;41.20;;;;;;4995552;28;20614;-85
2021/09/06 08:14:21;;;;;;;45.87;32.30;;;21.20;37.60;;;;;;4994543;28;20181;-85
2021/09/06 08:16:51;;;;;;;44.13;31.47;;;21.40;31.40;;;;;;4993832;28;20535;-83
2021/09/06 08:19:17;;;;;;;42.57;32.00;;;21.50;28.30;;;;;;4994783;28;20271;-84
2021/09/06 08:21:42;;;;;;;45.17;31.33;;;21.60;26.30;;;;;;4996981;28;20174;-83
2021/09/06 08:24:08;;;;;;;44.70;32.37;;;21.60;25.60;;;;;;4997316;28;20205;-83
2021/09/06 08:26:34;;;;;;;45.90;30.63;;;21.60;26.70;;;;;;4999952;28;20170;-85
2021/09/06 08:29:00;;;;;;;44.70;30.40;;;21.70;24.40;;;;;;4999077;28;20210;-82
2021/09/06 08:31:26;;;;;;;44.33;30.57;;;21.70;23.50;;;;;;4996887;28;20258;-84
2021/09/06 08:33:53;;;;;;;42.57;31.00;;;21.60;22.40;;;;;;4996805;28;20182;-82
2021/09/06 08:36:18;;;;;;;46.27;31.20;;;21.60;21.10;;;;;;5000970;28;20171;-83
2021/09/06 08:38:44;;;;;;;43.87;30.67;;;21.60;20.60;;;;;;4999579;28;20548;-83
2021/09/06 08:41:12;;;;;;;40.97;30.80;;;21.80;19.50;;;;;;4999554;28;20175;-82
2021/09/06 08:43:38;;;;;;;42.03;30.37;;;21.90;17.90;;;;;;5004275;28;20178;-82
2021/09/06 08:46:04;;;;;;;44.57;30.63;;;22.10;12.40;;;;;;4997870;28;20285;-84
2021/09/06 08:48:30;;;;;;;44.93;28.77;;;22.10;9.10;;;;;;4993644;28;20179;-83
2021/09/06 08:50:56;;;;;;;35.97;28.40;;;22.20;1.00;;;;;;4994844;28;20168;-84
2021/09/06 08:53:22;;;;;;;46.17;29.40;;;22.20;1.20;;;;;;4994445;28;20620;-85
2021/09/06 08:55:48;;;;;;;41.10;27.33;;;22.20;1.00;;;;;;4992817;28;20182;-82
2021/09/06 08:58:16;;;;;;;43.07;29.30;;;22.30;1.00;;;;;;4994300;28;20501;-83
2021/09/06 09:00:46;;;;;;;39.60;28.73;;;22.30;5.00;;;;;;4992739;28;20205;-82
2021/09/06 09:03:12;;;;;;;39.97;29.60;;;22.30;4.70;;;;;;4992778;28;20238;-84
2021/09/06 09:06:00;;;;;;;42.63;29.03;;;22.30;3.80;;;;;;4994761;28;20190;-82
2021/09/06 09:08:27;;;;;;;40.00;28.17;;;22.30;3.00;;;;;;4993427;28;20182;-84
2021/09/06 09:10:58;;;;;;;37.03;28.00;;;22.40;1.00;;;;;;4994376;28;20175;-83
2021/09/06 09:13:28;;;;;;;39.97;28.90;;;22.50;1.00;;;;;;4994790;28;20184;-83
2021/09/06 09:15:54;;;;;;;36.73;26.17;;;22.70;1.00;;;;;;4993943;28;20168;-84
2021/09/06 09:18:29;;;;;;;34.57;26.07;;;22.80;1.00;;;;;;4993659;28;20282;-84
2021/09/06 09:21:04;;;;;;;34.63;27.07;;;22.70;1.00;;;;;;4993358;28;20204;-83
2021/09/06 09:23:39;;;;;;;34.00;25.43;;;22.80;1.00;;;;;;4994651;28;20180;-84
2021/09/06 09:26:06;;;;;;;34.53;25.50;;;22.80;1.00;;;;;;4992255;28;20176;-83
2021/09/06 09:28:32;;;;;;;33.10;26.23;;;22.80;1.00;;;;;;4992395;28;20301;-83
2021/09/06 09:31:09;;;;;;;32.43;25.17;;;22.90;1.00;;;;;;4993456;28;20163;-84
2021/09/06 09:33:49;;;;;;;34.43;24.07;;;23.00;1.00;;;;;;4993206;28;20538;-85
2021/09/06 09:36:49;;;;;;;30.33;24.87;;;23.00;1.00;;;;;;4992408;28;20169;-84
2021/09/06 09:39:20;;;;;;;37.17;25.33;;;23.10;1.00;;;;;;4986422;28;20232;-83
2021/09/06 09:41:51;;;;;;;31.13;24.67;;;23.10;1.00;;;;;;4997135;28;20205;-83
2021/09/06 09:44:20;;;;;;;28.17;22.63;;;23.30;1.00;;;;;;4997208;28;20203;-83
2021/09/06 09:47:16;;;;;;;31.23;22.03;;;23.30;1.00;;;;;;4995777;28;20176;-83
2021/09/06 09:49:43;;;;;;;25.00;20.70;;;23.40;1.00;;;;;;4987856;28;20185;-83
2021/09/06 09:52:10;;;;;;;23.93;18.17;;;23.60;1.00;;;;;;4996707;28;20660;-83
2021/09/06 09:54:36;;;;;;;21.97;18.67;;;23.70;1.00;;;;;;4995793;28;20688;-83
2021/09/06 09:57:02;;;;;;;25.43;18.73;;;23.80;1.00;;;;;;4997186;28;20170;-83
2021/09/06 09:59:28;;;;;;;19.30;15.23;;;24.00;1.00;;;;;;4997131;28;20260;-83
2021/09/06 10:02:06;;;;;;;20.33;15.07;;;24.20;1.00;;;;;;4995344;28;20182;-83
2021/09/06 10:04:47;;;;;;;20.33;16.40;;;24.20;1.00;;;;;;4995636;28;20178;-85
2021/09/06 10:07:14;;;;;;;19.83;16.53;;;24.20;1.00;;;;;;4996100;28;20179;-83
2021/09/06 10:09:44;;;;;;;18.73;16.53;;;24.20;1.00;;;;;;4997065;28;20183;-84
2021/09/06 10:12:17;;;;;;;20.53;16.40;;;24.30;1.00;;;;;;4995047;28;20181;-83
2021/09/06 10:14:55;;;;;;;20.77;16.90;;;24.20;1.00;;;;;;4996891;28;20171;-84
2021/09/06 10:17:40;;;;;;;21.60;17.53;;;24.30;1.00;;;;;;4995249;28;20538;-83
2021/09/06 10:20:10;;;;;;;19.73;16.20;;;24.40;1.00;;;;;;4997400;28;20253;-83
2021/09/06 10:22:35;;;;;;;20.90;17.23;;;24.40;1.00;;;;;;4995148;28;20175;-82
2021/09/06 10:25:04;;;;;;;20.23;15.77;;;24.40;1.00;;;;;;4996880;28;20549;-82
2021/09/06 10:27:31;;;;;;;20.07;16.00;;;24.30;1.00;;;;;;4996302;28;20697;-82
2021/09/06 10:30:08;;;;;;;20.50;17.30;;;24.30;1.00;;;;;;4996919;28;20194;-82
2021/09/06 10:32:44;;;;;;;22.77;16.77;;;24.30;1.00;;;;;;4997098;28;20293;-81
2021/09/06 10:35:23;;;;;;;20.90;16.63;;;24.40;1.00;;;;;;4997098;28;20561;-82
2021/09/06 10:38:05;;;;;;;23.60;18.13;;;24.70;1.00;;;;;;4998052;28;20210;-84
2021/09/06 10:40:42;;;;;;;24.60;17.13;;;24.70;1.00;;;;;;4996449;28;20214;-82
2021/09/06 10:43:16;;;;;;;22.53;17.70;;;24.70;1.00;;;;;;4995901;28;20231;-82
2021/09/06 10:45:44;;;;;;;22.60;17.37;;;24.70;99.90;;;;;;4996935;28;20186;-83
2021/09/06 10:48:16;;;;;;;20.33;16.47;;;24.70;1.00;;;;;;4995492;28;20172;-83
2021/09/06 10:50:44;;;;;;;21.33;16.47;;;24.60;1.00;;;;;;4998020;28;20159;-82
2021/09/06 10:53:12;;;;;;;21.03;17.47;;;24.70;1.00;;;;;;4997391;28;20171;-83
2021/09/06 10:55:38;;;;;;;22.37;17.20;;;24.70;1.00;;;;;;4997056;28;20175;-83
2021/09/06 10:58:10;;;;;;;20.27;15.90;;;24.70;99.90;;;;;;4996253;28;20574;-82
2021/09/06 11:00:36;;;;;;;19.37;13.90;;;24.90;99.90;;;;;;4995545;28;20223;-82
2021/09/06 11:03:05;;;;;;;15.97;14.23;;;24.90;99.90;;;;;;4994535;28;20577;-82
2021/09/06 11:05:31;;;;;;;22.60;15.37;;;24.90;1.00;;;;;;4995108;28;20182;-83
2021/09/06 11:08:05;;;;;;;18.93;15.83;;;25.10;1.00;;;;;;4995393;28;20171;-84
2021/09/06 11:10:32;;;;;;;19.27;16.47;;;25.20;35.40;;;;;;4994002;28;20209;-82
2021/09/06 11:13:00;;;;;;;19.83;14.33;;;25.10;35.20;;;;;;4994877;28;20178;-83
2021/09/06 11:15:31;;;;;;;16.20;13.53;;;25.10;17.70;;;;;;4994730;28;20194;-82
2021/09/06 11:18:04;;;;;;;19.97;14.20;;;25.10;99.90;;;;;;4995171;28;20246;-82
2021/09/06 11:20:33;;;;;;;20.47;15.10;;;25.20;1.00;;;;;;4995419;28;20721;-82
2021/09/06 11:23:07;;;;;;;17.53;14.80;;;25.10;99.90;;;;;;4994818;28;20231;-82
2021/09/06 11:25:35;;;;;;;18.40;14.33;;;25.10;1.00;;;;;;4995062;28;20175;-82
2021/09/06 11:28:14;;;;;;;18.80;15.37;;;25.00;21.60;;;;;;4994777;28;20291;-82
2021/09/06 11:30:43;;;;;;;18.17;14.27;;;25.00;1.00;;;;;;4994567;28;20171;-82
2021/09/06 11:33:10;;;;;;;19.03;13.63;;;25.10;99.90;;;;;;4995195;28;20281;-83
2021/09/06 11:35:49;;;;;;;17.40;13.30;;;25.20;13.20;;;;;;4995094;28;20225;-81
2021/09/06 11:38:16;;;;;;;19.87;12.57;;;25.20;99.90;;;;;;4993815;28;20179;-82
2021/09/06 11:40:51;;;;;;;17.53;13.47;;;25.30;1.00;;;;;;4993124;28;20174;-82
2021/09/06 11:43:16;;;;;;;16.47;13.30;;;25.40;1.00;;;;;;4996447;28;20301;-82
2021/09/06 11:45:42;;;;;;;14.73;12.87;;;25.40;99.90;;;;;;5001441;28;20197;-81
2021/09/06 11:48:09;;;;;;;18.00;13.00;;;25.50;1.00;;;;;;4993896;28;20171;-81
2021/09/06 11:50:37;;;;;;;18.80;14.70;;;25.60;1.00;;;;;;4994031;28;20174;-82
2021/09/06 11:53:06;;;;;;;17.27;13.70;;;25.70;1.00;;;;;;4995134;28;20243;-82
2021/09/06 11:55:32;;;;;;;18.07;12.03;;;25.50;99.90;;;;;;4996239;28;20158;-80
2021/09/06 11:58:13;;;;;;;14.17;11.03;;;25.80;1.00;;;;;;4993564;28;20163;-82
2021/09/06 12:00:42;;;;;;;16.43;11.53;;;25.90;1.00;;;;;;5000189;28;20190;-82
2021/09/06 12:03:09;;;;;;;18.63;13.20;;;25.90;31.10;;;;;;5014042;28;20182;-82
2021/09/06 12:05:40;;;;;;;18.73;12.13;;;25.90;99.90;;;;;;5013968;28;20217;-82
2021/09/06 12:08:11;;;;;;;14.33;12.17;;;25.80;1.00;;;;;;5012522;28;20274;-82
2021/09/06 12:10:36;;;;;;;14.80;11.57;;;26.40;1.00;;;;;;5012475;28;20241;-82
2021/09/06 12:13:11;;;;;;;19.50;11.77;;;26.40;1.00;;;;;;5013405;28;20270;-81
2021/09/06 12:15:56;;;;;;;12.23;10.60;;;26.50;99.90;;;;;;5014156;28;20199;-81
2021/09/06 12:18:31;;;;;;;16.00;11.70;;;26.50;1.00;;;;;;5012628;28;20240;-81
2021/09/06 12:21:11;;;;;;;23.30;13.30;;;26.50;99.90;;;;;;5013972;28;20214;-82
2021/09/06 12:23:43;;;;;;;19.23;11.83;;;26.50;1.00;;;;;;5013465;28;20201;-81
2021/09/06 12:26:11;;;;;;;14.53;12.60;;;26.40;99.90;;;;;;5012956;28;20211;-81
2021/09/06 12:28:56;;;;;;;13.17;11.77;;;26.30;16.80;;;;;;5011424;28;20215;-82
2021/09/06 12:31:23;;;;;;;14.23;12.57;;;26.40;1.00;;;;;;5014844;28;20344;-81